Time;durP1;ratioP1;P1;durP2;ratioP2;P2;SDS_P1;SDS_P2;PMS_P1;PMS_P2;Temp;Humidity;BMP_temperature;BMP_pressure;BME280_temperature;BME280_humidity;BME280_pressure;Samples;Min_cycle;Max_cycle;Signal;HPM_P1;HPM_P2
2023/08/02 00:02:11;;;;;;;2.35;1.55;;;19.30;99.90;;;;;;7387013;19;20141;-79
2023/08/02 00:04:37;;;;;;;1.42;1.10;;;19.50;99.90;;;;;;7383706;19;20888;-80
2023/08/02 00:07:04;;;;;;;3.53;1.40;;;19.20;99.90;;;;;;7388053;19;20139;-79
2023/08/02 00:09:30;;;;;;;2.15;1.25;;;19.00;99.90;;;;;;7385005;19;20633;-80
2023/08/02 00:11:56;;;;;;;2.08;1.30;;;19.30;99.90;;;;;;7386218;19;20177;-79
2023/08/02 00:14:22;;;;;;;2.22;1.20;;;19.10;99.90;;;;;;7383715;19;20154;-80
2023/08/02 00:16:48;;;;;;;1.42;1.10;;;19.10;99.90;;;;;;7385998;19;20214;-79
2023/08/02 00:19:14;;;;;;;2.03;1.17;;;19.10;99.90;;;;;;7385015;19;20257;-80
2023/08/02 00:21:41;;;;;;;1.85;0.90;;;19.20;99.90;;;;;;7389424;19;20142;-80
2023/08/02 00:24:07;;;;;;;2.33;1.20;;;19.30;99.90;;;;;;7385891;19;20154;-78
2023/08/02 00:26:32;;;;;;;1.88;1.20;;;19.30;99.90;;;;;;7385955;19;20205;-80
2023/08/02 00:28:58;;;;;;;1.63;1.02;;;19.30;99.90;;;;;;7383457;19;20151;-80
2023/08/02 00:31:24;;;;;;;3.47;1.70;;;19.40;99.90;;;;;;7385564;19;20138;-79
2023/08/02 00:33:50;;;;;;;3.85;1.25;;;19.50;99.90;;;;;;7383660;19;20222;-79
2023/08/02 00:36:16;;;;;;;2.67;1.27;;;19.60;99.90;;;;;;7385002;19;20146;-79
2023/08/02 00:38:42;;;;;;;3.55;1.23;;;19.70;99.90;;;;;;7383954;19;20143;-79
2023/08/02 00:41:09;;;;;;;1.35;1.00;;;19.80;99.90;;;;;;7385307;19;20143;-79
2023/08/02 00:43:53;;;;;;;1.95;1.20;;;19.70;99.90;;;;;;7386627;19;20146;-79
2023/08/02 00:46:20;;;;;;;3.33;1.10;;;19.50;99.90;;;;;;7388060;19;20139;-79
2023/08/02 00:48:47;;;;;;;2.15;1.27;;;19.50;99.90;;;;;;7383649;19;20221;-78
2023/08/02 00:51:16;;;;;;;2.42;1.05;;;19.50;99.90;;;;;;7385239;19;20146;-80
2023/08/02 00:53:43;;;;;;;2.97;1.35;;;19.60;99.90;;;;;;7385304;19;20247;-80
2023/08/02 00:56:10;;;;;;;4.15;1.40;;;19.70;99.90;;;;;;7386361;19;20181;-80
2023/08/02 00:58:37;;;;;;;2.72;1.17;;;19.60;99.90;;;;;;7385333;19;20142;-80
2023/08/02 01:01:09;;;;;;;2.70;1.30;;;19.30;99.90;;;;;;7386871;19;20167;-80
2023/08/02 01:03:40;;;;;;;2.17;1.30;;;19.10;99.90;;;;;;7388419;19;20158;-80
2023/08/02 01:06:37;;;;;;;3.92;1.50;;;19.20;99.90;;;;;;7392399;19;20492;-79
2023/08/02 01:09:19;;;;;;;3.42;1.90;;;19.40;99.90;;;;;;7389903;19;20537;-80
2023/08/02 01:12:08;;;;;;;2.90;1.40;;;19.40;99.90;;;;;;7392580;19;20508;-80
2023/08/02 01:14:36;;;;;;;3.95;1.35;;;19.40;99.90;;;;;;7390254;19;20172;-80
2023/08/02 01:17:03;;;;;;;2.30;1.02;;;19.30;99.90;;;;;;7390026;19;20142;-78
2023/08/02 01:19:30;;;;;;;2.08;1.50;;;19.00;99.90;;;;;;7388979;19;20138;-79
2023/08/02 01:21:56;;;;;;;2.15;1.70;;;19.00;99.90;;;;;;7393016;19;20182;-79
2023/08/02 01:24:32;;;;;;;4.38;1.30;;;19.10;99.90;;;;;;7392201;19;20134;-80
2023/08/02 01:27:04;;;;;;;2.10;1.27;;;19.10;99.90;;;;;;7389778;19;20530;-80
2023/08/02 01:29:31;;;;;;;1.48;1.25;;;19.00;99.90;;;;;;7391861;19;20221;-79
2023/08/02 01:31:59;;;;;;;2.90;1.80;;;19.00;99.90;;;;;;7389017;19;20146;-79
2023/08/02 01:34:25;;;;;;;4.95;1.40;;;19.00;99.90;;;;;;7389606;19;20514;-79
2023/08/02 01:36:51;;;;;;;1.90;1.05;;;19.10;99.90;;;;;;7390389;19;20126;-80
2023/08/02 01:39:17;;;;;;;2.78;1.38;;;19.00;99.90;;;;;;7390710;19;20152;-80
2023/08/02 01:41:43;;;;;;;1.65;1.15;;;19.10;99.90;;;;;;7390638;19;20143;-79
2023/08/02 01:44:09;;;;;;;2.97;1.15;;;18.90;99.90;;;;;;7390958;19;20135;-80
2023/08/02 01:46:34;;;;;;;2.35;1.30;;;18.90;99.90;;;;;;7391508;19;20148;-79
2023/08/02 01:49:00;;;;;;;2.65;1.33;;;18.90;99.90;;;;;;7389998;19;20127;-79
2023/08/02 01:51:26;;;;;;;2.30;1.42;;;18.80;99.90;;;;;;7390866;19;20138;-80
2023/08/02 01:53:52;;;;;;;2.92;1.30;;;18.70;99.90;;;;;;7390375;19;20138;-80
2023/08/02 01:56:17;;;;;;;1.55;1.13;;;18.80;99.90;;;;;;7390190;19;20150;-78
2023/08/02 01:58:43;;;;;;;2.58;1.73;;;18.80;99.90;;;;;;7388829;19;20559;-78
2023/08/02 02:01:09;;;;;;;3.17;1.40;;;18.80;99.90;;;;;;7389895;19;20166;-78
2023/08/02 02:03:35;;;;;;;2.95;1.38;;;18.60;99.90;;;;;;7389953;19;20155;-79
2023/08/02 02:06:00;;;;;;;3.22;1.30;;;18.70;99.90;;;;;;7390603;19;20153;-78
2023/08/02 02:08:26;;;;;;;1.90;1.02;;;18.80;99.90;;;;;;7390718;19;20202;-79
2023/08/02 02:10:53;;;;;;;2.53;1.20;;;18.80;99.90;;;;;;7391072;19;20163;-80
2023/08/02 02:13:22;;;;;;;1.88;1.30;;;18.60;99.90;;;;;;7386320;19;20154;-79
2023/08/02 02:15:48;;;;;;;4.20;1.40;;;18.70;99.90;;;;;;7389650;19;20227;-79
2023/08/02 02:18:14;;;;;;;2.60;1.20;;;18.70;99.90;;;;;;7390442;19;20139;-79
2023/08/02 02:20:40;;;;;;;1.17;1.02;;;18.60;99.90;;;;;;7389645;19;20194;-79
2023/08/02 02:23:06;;;;;;;1.45;1.00;;;18.70;99.90;;;;;;7389681;19;20182;-79
2023/08/02 02:25:32;;;;;;;2.80;1.20;;;18.60;99.90;;;;;;7388580;19;20170;-79
2023/08/02 02:27:57;;;;;;;1.73;1.20;;;18.70;99.90;;;;;;7389907;19;20143;-79
2023/08/02 02:30:23;;;;;;;1.83;1.10;;;18.80;99.90;;;;;;7388429;19;20154;-79
2023/08/02 02:32:49;;;;;;;1.50;1.00;;;18.90;99.90;;;;;;7384151;19;20139;-79
2023/08/02 02:35:15;;;;;;;2.20;1.20;;;18.90;99.90;;;;;;7392118;19;20133;-79
2023/08/02 02:37:41;;;;;;;2.03;1.20;;;18.90;99.90;;;;;;7391641;19;20492;-79
2023/08/02 02:40:09;;;;;;;3.38;1.33;;;19.00;99.90;;;;;;7388677;19;20232;-78
2023/08/02 02:42:38;;;;;;;1.65;1.10;;;19.00;99.90;;;;;;7391272;19;20202;-78
2023/08/02 02:45:05;;;;;;;2.42;1.17;;;19.10;99.90;;;;;;7389883;19;20135;-79
2023/08/02 02:47:30;;;;;;;2.03;1.13;;;19.00;99.90;;;;;;7392730;19;20131;-79
2023/08/02 02:49:58;;;;;;;1.98;1.20;;;18.90;99.90;;;;;;7387245;19;20171;-79
2023/08/02 02:52:24;;;;;;;2.00;1.25;;;18.80;99.90;;;;;;7392656;19;20139;-79
2023/08/02 02:54:50;;;;;;;2.53;1.40;;;18.80;99.90;;;;;;7387086;19;20554;-79
2023/08/02 02:57:17;;;;;;;1.15;0.95;;;18.90;99.90;;;;;;7390403;19;20134;-78
2023/08/02 02:59:43;;;;;;;2.10;1.30;;;18.90;99.90;;;;;;7390611;19;21469;-80
2023/08/02 03:02:09;;;;;;;4.00;1.50;;;19.00;99.90;;;;;;7390072;19;20218;-78
2023/08/02 03:04:35;;;;;;;2.08;1.10;;;19.00;99.90;;;;;;7386036;19;20482;-78
2023/08/02 03:07:01;;;;;;;1.42;1.13;;;19.10;99.90;;;;;;7388261;19;20157;-79
2023/08/02 03:09:26;;;;;;;2.05;1.23;;;19.00;99.90;;;;;;7387852;19;20537;-79
2023/08/02 03:11:52;;;;;;;2.22;1.10;;;19.00;99.90;;;;;;7387975;19;20147;-78
2023/08/02 03:14:18;;;;;;;2.00;1.33;;;19.00;99.90;;;;;;7387175;19;20138;-78
2023/08/02 03:16:44;;;;;;;2.47;1.40;;;19.10;99.90;;;;;;7389477;19;20134;-78
2023/08/02 03:19:10;;;;;;;3.13;1.20;;;19.10;99.90;;;;;;7388743;19;20127;-79
2023/08/02 03:21:36;;;;;;;3.17;1.77;;;18.90;99.90;;;;;;7391487;19;20198;-79
2023/08/02 03:24:02;;;;;;;2.28;1.30;;;18.90;99.90;;;;;;7389905;19;20155;-80
2023/08/02 03:26:28;;;;;;;2.30;1.30;;;19.00;99.90;;;;;;7389941;19;20274;-79
2023/08/02 03:28:54;;;;;;;1.60;1.10;;;19.00;99.90;;;;;;7388115;19;20151;-79
2023/08/02 03:31:20;;;;;;;2.45;1.30;;;18.90;99.90;;;;;;7389340;19;20177;-80
2023/08/02 03:33:45;;;;;;;2.10;1.15;;;19.10;99.90;;;;;;7387588;19;20142;-79
2023/08/02 03:36:11;;;;;;;1.88;1.10;;;19.00;99.90;;;;;;7390646;19;20646;-80
2023/08/02 03:38:37;;;;;;;4.38;1.23;;;19.00;99.90;;;;;;7387633;19;20152;-78
2023/08/02 03:41:03;;;;;;;1.92;1.00;;;19.00;99.90;;;;;;7387858;19;20157;-80
2023/08/02 03:43:29;;;;;;;3.03;1.30;;;19.10;99.90;;;;;;7389081;19;20135;-80
2023/08/02 03:45:55;;;;;;;2.55;1.10;;;19.10;99.90;;;;;;7387867;19;20138;-81
2023/08/02 03:48:20;;;;;;;4.93;1.50;;;19.00;99.90;;;;;;7388500;19;20477;-79
2023/08/02 03:50:46;;;;;;;2.65;1.20;;;19.10;99.90;;;;;;7388313;19;20578;-79
2023/08/02 03:53:12;;;;;;;2.08;1.15;;;19.00;99.90;;;;;;7388730;19;20223;-80
2023/08/02 03:55:37;;;;;;;1.85;1.20;;;19.10;99.90;;;;;;7388404;19;20565;-79
2023/08/02 03:58:04;;;;;;;3.70;1.40;;;19.10;99.90;;;;;;7387776;19;20150;-80
2023/08/02 04:00:30;;;;;;;4.70;1.40;;;19.10;99.90;;;;;;7390757;19;20154;-79
2023/08/02 04:02:56;;;;;;;2.50;1.33;;;19.20;99.90;;;;;;7388468;19;20150;-80
2023/08/02 04:05:21;;;;;;;3.67;1.30;;;19.10;99.90;;;;;;7387622;19;20139;-80
2023/08/02 04:07:47;;;;;;;3.92;1.30;;;19.20;99.90;;;;;;7389558;19;20135;-80
2023/08/02 04:10:13;;;;;;;2.83;1.77;;;19.30;99.90;;;;;;7387606;19;20135;-80
2023/08/02 04:12:39;;;;;;;2.50;1.27;;;19.30;99.90;;;;;;7388355;19;20587;-80
2023/08/02 04:15:05;;;;;;;2.63;1.20;;;19.40;99.90;;;;;;7383526;19;20208;-80
2023/08/02 04:17:31;;;;;;;2.70;1.35;;;19.30;99.90;;;;;;7387347;19;20138;-80
2023/08/02 04:19:58;;;;;;;1.88;1.30;;;19.20;99.90;;;;;;7385677;19;20165;-80
2023/08/02 04:22:24;;;;;;;1.77;1.10;;;19.20;99.90;;;;;;7387385;19;20225;-80
2023/08/02 04:24:50;;;;;;;1.70;1.10;;;19.10;99.90;;;;;;7385353;19;20154;-80
2023/08/02 04:27:15;;;;;;;1.90;1.33;;;19.30;99.90;;;;;;7387769;19;20162;-80
2023/08/02 04:29:41;;;;;;;2.15;1.23;;;19.30;99.90;;;;;;7386079;19;20245;-80
2023/08/02 04:32:07;;;;;;;1.88;1.30;;;19.20;99.90;;;;;;7385926;19;20581;-80
2023/08/02 04:34:33;;;;;;;1.73;1.30;;;19.20;99.90;;;;;;7385454;19;20123;-79
2023/08/02 04:36:58;;;;;;;2.15;1.40;;;19.30;99.90;;;;;;7389746;19;20311;-79
2023/08/02 04:39:24;;;;;;;2.10;1.63;;;19.30;99.90;;;;;;7391324;19;20137;-79
2023/08/02 04:41:54;;;;;;;2.50;1.58;;;19.30;99.90;;;;;;7393871;19;20160;-79
2023/08/02 04:44:20;;;;;;;2.50;1.70;;;19.20;99.90;;;;;;7392985;19;20307;-80
2023/08/02 04:46:47;;;;;;;2.80;1.52;;;19.20;99.90;;;;;;7396126;19;20625;-81
2023/08/02 04:49:13;;;;;;;5.72;2.13;;;19.10;99.90;;;;;;7394171;19;20138;-81
2023/08/02 04:51:39;;;;;;;8.70;5.85;;;19.20;99.90;;;;;;7395443;19;20653;-81
2023/08/02 04:54:05;;;;;;;2.92;1.85;;;19.20;99.90;;;;;;7392148;19;20126;-80
2023/08/02 04:56:31;;;;;;;3.03;1.70;;;19.20;99.90;;;;;;7394987;19;20559;-81
2023/08/02 04:58:57;;;;;;;2.00;1.70;;;19.10;99.90;;;;;;7392777;19;20169;-80
2023/08/02 05:01:22;;;;;;;2.67;1.50;;;19.10;99.90;;;;;;7395678;19;20131;-80
2023/08/02 05:03:48;;;;;;;3.45;1.75;;;19.10;99.90;;;;;;7392961;19;20147;-82
2023/08/02 05:06:14;;;;;;;1.73;1.33;;;19.00;99.90;;;;;;7395048;19;20278;-82
2023/08/02 05:08:40;;;;;;;2.25;1.77;;;18.90;99.90;;;;;;7393457;19;20534;-83
2023/08/02 05:11:08;;;;;;;4.72;2.05;;;18.90;99.90;;;;;;7394282;19;20494;-82
2023/08/02 05:13:35;;;;;;;2.92;1.75;;;18.80;99.90;;;;;;7393294;19;20167;-85
2023/08/02 05:16:00;;;;;;;4.22;2.13;;;18.80;99.90;;;;;;7393619;19;20151;-84
2023/08/02 05:18:26;;;;;;;3.75;1.65;;;18.90;99.90;;;;;;7393031;19;20178;-82
2023/08/02 05:20:53;;;;;;;4.53;1.92;;;18.80;99.90;;;;;;7394055;19;20127;-83
2023/08/02 05:23:18;;;;;;;4.03;1.98;;;18.80;99.90;;;;;;7394291;19;20172;-82
2023/08/02 05:25:44;;;;;;;5.80;2.20;;;18.70;99.90;;;;;;7395493;19;20131;-83
2023/08/02 05:28:10;;;;;;;5.18;2.10;;;18.80;99.90;;;;;;7394854;19;20213;-81
2023/08/02 05:30:37;;;;;;;2.70;1.55;;;18.80;99.90;;;;;;7394760;19;20483;-81
2023/08/02 05:33:03;;;;;;;4.75;1.92;;;18.70;99.90;;;;;;7395234;19;20135;-83
2023/08/02 05:35:29;;;;;;;3.00;1.65;;;18.70;99.90;;;;;;7392702;19;20143;-85
2023/08/02 05:37:56;;;;;;;3.80;1.90;;;18.70;99.90;;;;;;7395513;19;20547;-83
2023/08/02 05:40:22;;;;;;;2.33;1.45;;;18.50;99.90;;;;;;7393898;19;20492;-83
2023/08/02 05:42:48;;;;;;;3.55;1.85;;;18.40;99.90;;;;;;7395448;19;20589;-83
2023/08/02 05:45:15;;;;;;;3.40;2.00;;;18.50;99.90;;;;;;7392820;19;20163;-83
2023/08/02 05:47:41;;;;;;;5.85;1.90;;;18.50;99.90;;;;;;7395559;19;20142;-82
2023/08/02 05:50:07;;;;;;;6.25;2.78;;;18.50;99.90;;;;;;7392701;19;20131;-82
2023/08/02 05:52:34;;;;;;;4.82;2.38;;;18.50;99.90;;;;;;7393339;19;20147;-81
2023/08/02 05:55:00;;;;;;;2.20;1.60;;;18.30;99.90;;;;;;7391064;19;20143;-81
2023/08/02 05:57:26;;;;;;;4.28;1.88;;;18.30;99.90;;;;;;7392179;19;20139;-83
2023/08/02 05:59:51;;;;;;;3.55;1.90;;;18.30;99.90;;;;;;7391283;19;20135;-82
2023/08/02 06:02:17;;;;;;;3.35;1.90;;;18.30;99.90;;;;;;7393793;19;20146;-82
2023/08/02 06:04:44;;;;;;;3.20;1.98;;;18.50;99.90;;;;;;7391288;19;20578;-83
2023/08/02 06:07:10;;;;;;;5.38;2.22;;;18.40;99.90;;;;;;7392921;19;20161;-84
2023/08/02 06:09:36;;;;;;;2.55;1.70;;;18.40;99.90;;;;;;7393749;19;20171;-82
2023/08/02 06:12:02;;;;;;;4.10;2.47;;;18.30;99.90;;;;;;7394737;19;20130;-83
2023/08/02 06:14:28;;;;;;;7.47;4.50;;;18.40;99.90;;;;;;7394665;19;20701;-82
2023/08/02 06:16:54;;;;;;;5.88;4.10;;;18.50;99.90;;;;;;7393938;19;20157;-81
2023/08/02 06:19:20;;;;;;;12.55;8.57;;;18.20;99.90;;;;;;7396042;19;20139;-83
2023/08/02 06:21:45;;;;;;;5.70;3.50;;;17.90;99.90;;;;;;7393737;19;20213;-81
2023/08/02 06:24:11;;;;;;;4.32;2.38;;;18.00;99.90;;;;;;7392812;19;20448;-81
2023/08/02 06:26:37;;;;;;;3.60;2.17;;;18.20;99.90;;;;;;7394434;19;20171;-81
2023/08/02 06:29:06;;;;;;;3.70;1.83;;;18.30;99.90;;;;;;7392519;19;20150;-84
2023/08/02 06:31:32;;;;;;;3.55;2.10;;;18.10;99.90;;;;;;7392313;19;20167;-81
2023/08/02 06:33:58;;;;;;;3.63;2.13;;;18.10;99.90;;;;;;7391280;19;20146;-81
2023/08/02 06:36:23;;;;;;;4.13;1.80;;;18.10;99.90;;;;;;7391607;19;20142;-82
2023/08/02 06:38:49;;;;;;;4.47;2.30;;;18.20;99.90;;;;;;7391266;19;20470;-82
2023/08/02 06:41:15;;;;;;;3.70;2.97;;;18.30;99.90;;;;;;7390434;19;20545;-83
2023/08/02 06:43:41;;;;;;;4.07;2.15;;;18.30;99.90;;;;;;7389382;19;20607;-81
2023/08/02 06:46:07;;;;;;;3.85;2.08;;;18.30;99.90;;;;;;7393221;19;20225;-82
2023/08/02 06:48:33;;;;;;;3.53;2.03;;;18.30;99.90;;;;;;7390766;19;20191;-83
2023/08/02 06:51:00;;;;;;;4.25;2.33;;;18.30;99.90;;;;;;7390926;19;20487;-83
2023/08/02 06:53:26;;;;;;;5.07;2.50;;;18.40;99.90;;;;;;7391654;19;20130;-82
2023/08/02 06:55:51;;;;;;;4.57;2.53;;;18.50;99.90;;;;;;7390457;19;20188;-82
2023/08/02 06:58:17;;;;;;;3.30;2.40;;;18.50;99.90;;;;;;7391406;19;20131;-78
2023/08/02 07:00:43;;;;;;;5.00;2.20;;;18.60;99.90;;;;;;7390782;19;20127;-79
2023/08/02 07:03:09;;;;;;;3.28;2.30;;;18.70;99.90;;;;;;7392156;19;20161;-79
2023/08/02 07:05:35;;;;;;;3.15;2.28;;;18.70;99.90;;;;;;7391039;19;20575;-79
2023/08/02 07:08:02;;;;;;;3.53;2.63;;;18.90;99.90;;;;;;7389595;19;20138;-79
2023/08/02 07:10:29;;;;;;;5.78;4.70;;;19.00;99.90;;;;;;7390979;19;20574;-78
2023/08/02 07:12:56;;;;;;;4.10;3.03;;;18.90;99.90;;;;;;7392269;19;20202;-77
2023/08/02 07:15:22;;;;;;;5.95;3.40;;;18.90;99.90;;;;;;7391904;19;20149;-80
2023/08/02 07:17:49;;;;;;;3.55;2.53;;;18.80;99.90;;;;;;7389743;19;20155;-79
2023/08/02 07:20:15;;;;;;;4.38;2.72;;;18.80;99.90;;;;;;7389794;19;20646;-80
2023/08/02 07:22:43;;;;;;;4.95;3.20;;;18.90;99.90;;;;;;7389852;19;20142;-80
2023/08/02 07:25:09;;;;;;;5.15;2.97;;;18.90;99.90;;;;;;7388929;19;20152;-79
2023/08/02 07:27:37;;;;;;;4.82;3.08;;;19.00;99.90;;;;;;7385742;19;20157;-80
2023/08/02 07:30:03;;;;;;;3.55;2.72;;;19.00;99.90;;;;;;7390025;19;20192;-80
2023/08/02 07:32:30;;;;;;;3.45;2.70;;;19.10;99.90;;;;;;7395570;19;20150;-82
2023/08/02 07:34:57;;;;;;;3.72;3.00;;;19.20;99.90;;;;;;7386548;19;20158;-81
2023/08/02 07:37:23;;;;;;;3.42;2.53;;;19.20;99.90;;;;;;7389152;19;20134;-81
2023/08/02 07:39:49;;;;;;;3.97;2.78;;;19.20;99.90;;;;;;7386984;19;20134;-79
2023/08/02 07:42:15;;;;;;;4.95;3.33;;;19.20;99.90;;;;;;7391624;19;20604;-79
2023/08/02 07:44:41;;;;;;;3.55;2.67;;;19.20;99.90;;;;;;7387354;19;20135;-79
2023/08/02 07:47:07;;;;;;;5.25;3.10;;;19.20;99.90;;;;;;7388853;19;20161;-79
2023/08/02 07:49:32;;;;;;;4.68;3.05;;;19.30;99.90;;;;;;7388445;19;20130;-79
2023/08/02 07:51:59;;;;;;;3.75;2.78;;;19.20;99.90;;;;;;7388272;19;20127;-79
2023/08/02 07:54:25;;;;;;;5.00;2.72;;;19.40;99.90;;;;;;7388674;19;20150;-79
2023/08/02 07:56:50;;;;;;;4.15;3.33;;;19.40;99.90;;;;;;7387497;19;20584;-78
2023/08/02 07:59:16;;;;;;;5.05;2.80;;;19.40;99.90;;;;;;7388664;19;20570;-78
2023/08/02 08:01:42;;;;;;;3.80;2.90;;;19.40;99.90;;;;;;7389509;19;20157;-78
2023/08/02 08:04:08;;;;;;;4.88;2.88;;;19.50;99.90;;;;;;7386570;19;20150;-78
2023/08/02 08:06:34;;;;;;;5.07;2.95;;;19.30;99.90;;;;;;7389222;19;20153;-78
2023/08/02 08:09:00;;;;;;;4.68;2.35;;;19.20;99.90;;;;;;7387528;19;20571;-78
2023/08/02 08:11:29;;;;;;;4.35;2.83;;;19.20;99.90;;;;;;7385111;19;20475;-79
2023/08/02 08:13:55;;;;;;;3.28;2.40;;;19.10;99.90;;;;;;7387000;19;20160;-79
2023/08/02 08:16:21;;;;;;;4.30;2.67;;;19.10;99.90;;;;;;7389242;19;20239;-79
2023/08/02 08:18:47;;;;;;;8.18;4.22;;;19.20;99.90;;;;;;7388445;19;20309;-79
2023/08/02 08:21:13;;;;;;;4.50;2.22;;;19.20;99.90;;;;;;7387050;19;20579;-79
2023/08/02 08:23:39;;;;;;;2.90;2.30;;;19.20;99.90;;;;;;7387542;19;20188;-79
2023/08/02 08:26:09;;;;;;;4.00;2.70;;;19.20;99.90;;;;;;7387670;19;20134;-80
2023/08/02 08:28:35;;;;;;;4.03;2.58;;;19.30;99.90;;;;;;7388355;19;20591;-79
2023/08/02 08:31:02;;;;;;;2.35;2.08;;;19.20;99.90;;;;;;7387303;19;20144;-79
2023/08/02 08:33:29;;;;;;;2.85;2.15;;;19.40;99.90;;;;;;7386165;19;20154;-79
2023/08/02 08:35:55;;;;;;;5.40;2.30;;;19.40;99.90;;;;;;7388328;19;20150;-79
2023/08/02 08:38:21;;;;;;;6.60;2.20;;;19.40;99.90;;;;;;7387184;19;20131;-79
2023/08/02 08:40:54;;;;;;;4.10;1.70;;;19.40;99.90;;;;;;7387487;19;20151;-79
2023/08/02 08:43:26;;;;;;;5.07;2.00;;;19.40;99.90;;;;;;7390459;19;20138;-80
2023/08/02 08:45:52;;;;;;;2.50;1.83;;;19.50;99.90;;;;;;7388988;19;20646;-80
2023/08/02 08:48:21;;;;;;;8.23;3.55;;;19.50;99.90;;;;;;7387637;19;20151;-80
2023/08/02 08:50:49;;;;;;;3.50;2.17;;;19.40;99.90;;;;;;7387856;19;20151;-81
2023/08/02 08:53:22;;;;;;;2.53;1.90;;;19.40;99.90;;;;;;7385570;19;20265;-80
2023/08/02 08:55:51;;;;;;;5.80;3.08;;;19.40;99.90;;;;;;7388586;19;20131;-79
2023/08/02 08:58:18;;;;;;;3.00;1.85;;;19.50;99.90;;;;;;7386813;19;20146;-84
2023/08/02 09:00:45;;;;;;;4.43;3.15;;;19.60;99.90;;;;;;7390777;19;20139;-84
2023/08/02 09:03:12;;;;;;;4.78;2.67;;;19.50;99.90;;;;;;7387338;19;20181;-83
2023/08/02 09:05:40;;;;;;;5.43;2.17;;;19.50;99.90;;;;;;7388823;19;20501;-83
2023/08/02 09:08:06;;;;;;;7.30;3.40;;;19.40;99.90;;;;;;7387306;19;20131;-83
2023/08/02 09:10:33;;;;;;;3.80;2.97;;;19.40;99.90;;;;;;7386806;19;20542;-81
2023/08/02 09:12:59;;;;;;;4.03;1.90;;;19.40;99.90;;;;;;7387934;19;20638;-82
2023/08/02 09:15:24;;;;;;;4.03;2.25;;;19.40;99.90;;;;;;7386855;19;20197;-81
2023/08/02 09:17:52;;;;;;;2.95;1.77;;;19.40;99.90;;;;;;7388018;19;20501;-79
2023/08/02 09:20:21;;;;;;;2.88;1.90;;;19.20;99.90;;;;;;7385757;19;20143;-82
2023/08/02 09:22:47;;;;;;;4.38;1.95;;;19.30;99.90;;;;;;7388328;19;20149;-82
2023/08/02 09:25:27;;;;;;;3.15;2.17;;;19.40;99.90;;;;;;7392507;19;20746;-80
2023/08/02 09:27:55;;;;;;;4.90;2.38;;;19.40;99.90;;;;;;7394012;19;20155;-80
2023/08/02 09:30:34;;;;;;;5.07;1.95;;;19.50;99.90;;;;;;7393155;19;20169;-84
2023/08/02 09:33:20;;;;;;;3.55;2.17;;;19.40;99.90;;;;;;7394770;19;20138;-81
2023/08/02 09:35:52;;;;;;;2.83;1.88;;;19.40;99.90;;;;;;7395351;19;20161;-79
2023/08/02 09:38:19;;;;;;;3.75;2.10;;;19.40;99.90;;;;;;7393191;19;20142;-82
2023/08/02 09:40:48;;;;;;;3.53;2.17;;;19.40;99.90;;;;;;7395105;19;20134;-82
2023/08/02 09:43:15;;;;;;;3.40;2.00;;;19.50;99.90;;;;;;7392924;19;20200;-82
2023/08/02 09:45:41;;;;;;;3.13;2.20;;;19.70;99.90;;;;;;7394852;19;20154;-81
2023/08/02 09:48:06;;;;;;;4.38;2.10;;;19.70;99.90;;;;;;7392798;19;20147;-82
2023/08/02 09:50:33;;;;;;;4.60;2.17;;;19.70;99.90;;;;;;7393129;19;20135;-81
2023/08/02 09:53:17;;;;;;;3.78;2.70;;;19.80;99.90;;;;;;7392166;19;20150;-81
2023/08/02 09:55:46;;;;;;;4.95;3.25;;;19.80;99.90;;;;;;7392256;19;20150;-82
2023/08/02 09:58:13;;;;;;;6.10;3.58;;;19.90;99.90;;;;;;7394610;19;20528;-84
2023/08/02 10:00:40;;;;;;;6.22;4.30;;;20.00;99.90;;;;;;7391944;19;20291;-81
2023/08/02 10:03:11;;;;;;;6.43;2.55;;;20.00;99.90;;;;;;7391868;19;20205;-83
2023/08/02 10:05:42;;;;;;;3.47;2.70;;;20.00;99.90;;;;;;7393247;19;20138;-82
2023/08/02 10:08:11;;;;;;;5.88;4.22;;;20.10;99.90;;;;;;7392535;19;20162;-88
2023/08/02 10:10:39;;;;;;;4.07;2.38;;;20.20;99.90;;;;;;7393576;19;20170;-82
2023/08/02 10:13:08;;;;;;;4.05;2.55;;;20.20;99.90;;;;;;7391583;19;20645;-80
2023/08/02 10:15:40;;;;;;;2.90;2.40;;;20.20;99.90;;;;;;7394386;19;20134;-79
2023/08/02 10:18:06;;;;;;;3.15;2.38;;;20.30;99.90;;;;;;7392800;19;20134;-82
2023/08/02 10:20:34;;;;;;;3.45;2.30;;;20.40;99.90;;;;;;7391543;19;20154;-80
2023/08/02 10:23:03;;;;;;;4.80;2.95;;;20.50;99.90;;;;;;7391454;19;20262;-79
2023/08/02 10:25:32;;;;;;;6.75;3.90;;;20.50;99.90;;;;;;7392415;19;20130;-78
2023/08/02 10:27:59;;;;;;;4.93;2.60;;;20.40;99.90;;;;;;7393498;19;20135;-81
2023/08/02 10:30:27;;;;;;;3.17;2.50;;;20.50;99.90;;;;;;7390800;19;20503;-81
2023/08/02 10:33:28;;;;;;;3.38;2.70;;;20.50;99.90;;;;;;7393036;19;20123;-84
2023/08/02 10:36:05;;;;;;;5.72;2.78;;;20.60;99.90;;;;;;7388474;19;20142;-83
2023/08/02 10:38:44;;;;;;;4.43;3.08;;;20.40;99.90;;;;;;7391921;19;20483;-79
2023/08/02 10:41:16;;;;;;;3.97;2.97;;;20.30;99.90;;;;;;7391821;19;20496;-78
2023/08/02 10:43:54;;;;;;;3.92;2.45;;;20.30;99.90;;;;;;7388466;19;20149;-78
2023/08/02 10:46:21;;;;;;;3.42;2.65;;;20.40;99.90;;;;;;7391209;19;20443;-80
2023/08/02 10:48:46;;;;;;;3.80;2.72;;;20.40;99.90;;;;;;7389842;19;20229;-81
2023/08/02 10:51:32;;;;;;;6.50;2.80;;;20.40;99.90;;;;;;7391622;19;20130;-82
2023/08/02 10:54:15;;;;;;;4.40;3.05;;;20.40;99.90;;;;;;7391051;19;20150;-80
2023/08/02 10:56:57;;;;;;;4.80;2.90;;;20.40;99.90;;;;;;7390812;19;20612;-81
2023/08/02 10:59:22;;;;;;;3.05;2.72;;;20.30;99.90;;;;;;7390540;19;20138;-80
2023/08/02 11:01:59;;;;;;;6.68;4.90;;;20.30;99.90;;;;;;7393742;19;20563;-81
2023/08/02 11:04:26;;;;;;;7.30;4.00;;;20.30;99.90;;;;;;7388861;19;20169;-83
2023/08/02 11:06:52;;;;;;;8.88;2.90;;;20.40;99.90;;;;;;7389852;19;21631;-85
2023/08/02 11:09:29;;;;;;;4.25;3.20;;;20.50;99.90;;;;;;7391785;19;20127;-85
2023/08/02 11:11:55;;;;;;;4.25;2.85;;;20.50;99.90;;;;;;7392657;19;20138;-83
2023/08/02 11:14:27;;;;;;;3.60;2.90;;;20.60;99.90;;;;;;7390635;19;20278;-84
2023/08/02 11:16:54;;;;;;;6.35;3.03;;;20.60;99.90;;;;;;7397959;19;20130;-84
2023/08/02 11:19:21;;;;;;;3.88;2.97;;;20.80;99.90;;;;;;7392566;19;20173;-83
2023/08/02 11:21:55;;;;;;;3.58;2.90;;;20.70;99.90;;;;;;7398212;19;20139;-83
2023/08/02 11:24:23;;;;;;;5.57;3.03;;;20.70;99.90;;;;;;7396882;19;20153;-84
2023/08/02 11:26:54;;;;;;;4.93;2.90;;;20.80;99.90;;;;;;7392552;19;20153;-81
2023/08/02 11:29:21;;;;;;;7.38;2.60;;;20.80;99.90;;;;;;7391258;19;20206;-84
2023/08/02 11:31:48;;;;;;;4.97;3.00;;;21.00;99.90;;;;;;7396009;19;20138;-82
2023/08/02 11:34:18;;;;;;;4.63;4.03;;;21.10;99.90;;;;;;7394071;19;20146;-80
2023/08/02 11:36:45;;;;;;;8.00;4.65;;;21.20;99.90;;;;;;7394906;19;20157;-83
2023/08/02 11:39:18;;;;;;;6.18;5.03;;;21.30;99.90;;;;;;7392076;19;20201;-82
2023/08/02 11:41:59;;;;;;;5.60;3.60;;;21.30;99.90;;;;;;7392009;19;20135;-79
2023/08/02 11:44:25;;;;;;;4.35;3.42;;;21.40;99.90;;;;;;7389787;19;20466;-81
2023/08/02 11:46:56;;;;;;;4.18;3.28;;;21.60;99.90;;;;;;7389962;19;20217;-81
2023/08/02 11:49:22;;;;;;;3.40;2.72;;;21.90;99.90;;;;;;7389456;19;20177;-82
2023/08/02 11:51:48;;;;;;;4.60;2.63;;;22.20;99.90;;;;;;7396222;19;20145;-79
2023/08/02 11:54:15;;;;;;;4.05;2.85;;;22.60;99.90;;;;;;7392294;19;20586;-78
2023/08/02 11:56:41;;;;;;;3.20;2.42;;;22.90;99.90;;;;;;7392289;19;20245;-79
2023/08/02 11:59:11;;;;;;;4.65;3.30;;;23.00;99.90;;;;;;7389623;19;20150;-78
2023/08/02 12:01:41;;;;;;;6.30;3.17;;;23.10;99.90;;;;;;7392120;19;20138;-78
2023/08/02 12:04:08;;;;;;;2.92;2.42;;;23.20;99.90;;;;;;7387118;19;20170;-77
2023/08/02 12:07:03;;;;;;;3.28;2.70;;;23.20;99.90;;;;;;7392680;19;20134;-80
2023/08/02 12:09:41;;;;;;;4.35;2.92;;;23.20;99.90;;;;;;7387363;19;20645;-80
2023/08/02 12:12:06;;;;;;;3.00;2.70;;;23.10;99.90;;;;;;7390519;19;20145;-78
2023/08/02 12:14:32;;;;;;;8.15;2.53;;;23.10;99.90;;;;;;7389452;19;20143;-78
2023/08/02 12:16:58;;;;;;;3.83;2.63;;;23.20;99.90;;;;;;7391668;19;20134;-79
2023/08/02 12:19:40;;;;;;;4.13;2.85;;;23.20;99.90;;;;;;7389764;19;20863;-79
2023/08/02 12:22:06;;;;;;;3.55;2.90;;;23.30;99.90;;;;;;7390659;19;20211;-79
2023/08/02 12:24:32;;;;;;;2.90;2.50;;;23.40;99.90;;;;;;7390963;19;20647;-78
2023/08/02 12:27:14;;;;;;;3.10;2.42;;;23.70;99.90;;;;;;7391552;19;20122;-80
2023/08/02 12:29:42;;;;;;;3.08;2.20;;;24.10;99.90;;;;;;7389380;19;20238;-79
2023/08/02 12:32:08;;;;;;;2.78;2.13;;;24.20;99.90;;;;;;7390985;19;20134;-79
2023/08/02 12:34:36;;;;;;;3.40;2.30;;;24.50;99.90;;;;;;7388081;19;20131;-79
2023/08/02 12:37:03;;;;;;;3.08;2.00;;;24.70;99.90;;;;;;7389687;19;20602;-80
2023/08/02 12:39:28;;;;;;;2.50;2.03;;;25.00;99.90;;;;;;7388740;19;20159;-85
2023/08/02 12:41:54;;;;;;;3.22;2.40;;;25.20;99.90;;;;;;7391103;19;20147;-82
2023/08/02 12:44:20;;;;;;;3.08;1.95;;;25.30;99.90;;;;;;7389611;19;20210;-80
2023/08/02 12:46:46;;;;;;;2.40;2.00;;;25.20;99.90;;;;;;7390918;19;20134;-81
2023/08/02 12:49:11;;;;;;;3.03;1.83;;;25.00;99.90;;;;;;7388553;19;20146;-81
2023/08/02 12:51:38;;;;;;;1.83;1.60;;;24.70;99.90;;;;;;7390682;19;20149;-80